sensor_id;sensor_type;location;lat;lon;timestamp;P1;durP1;ratioP1;P2;durP2;ratioP2
12373;SDS011;6251;51.762;8.660;2023-03-09T00:00:45;15.27;;;8.43;;
12373;SDS011;6251;51.762;8.660;2023-03-09T00:10:46;19.60;;;9.50;;
12373;SDS011;6251;51.762;8.660;2023-03-09T02:02:35;13.40;;;7.37;;
12373;SDS011;6251;51.762;8.660;2023-03-09T02:12:38;14.30;;;7.70;;
12373;SDS011;6251;51.762;8.660;2023-03-09T03:54:13;24.83;;;9.57;;
12373;SDS011;6251;51.762;8.660;2023-03-09T05:05:16;18.70;;;8.03;;
12373;SDS011;6251;51.762;8.660;2023-03-09T05:15:17;20.27;;;8.90;;
12373;SDS011;6251;51.762;8.660;2023-03-09T05:25:17;20.90;;;8.97;;
12373;SDS011;6251;51.762;8.660;2023-03-09T05:35:18;22.70;;;8.97;;
12373;SDS011;6251;51.762;8.660;2023-03-09T05:45:19;26.10;;;10.23;;
12373;SDS011;6251;51.762;8.660;2023-03-09T05:55:20;29.93;;;9.67;;
12373;SDS011;6251;51.762;8.660;2023-03-09T06:05:20;26.53;;;9.90;;
12373;SDS011;6251;51.762;8.660;2023-03-09T06:15:21;28.20;;;11.33;;
12373;SDS011;6251;51.762;8.660;2023-03-09T06:25:23;30.13;;;10.60;;
12373;SDS011;6251;51.762;8.660;2023-03-09T06:35:24;22.47;;;10.77;;
12373;SDS011;6251;51.762;8.660;2023-03-09T06:45:25;21.97;;;9.13;;
12373;SDS011;6251;51.762;8.660;2023-03-09T06:55:28;25.80;;;11.33;;
12373;SDS011;6251;51.762;8.660;2023-03-09T07:05:29;25.70;;;10.37;;
12373;SDS011;6251;51.762;8.660;2023-03-09T07:15:30;24.13;;;9.93;;
12373;SDS011;6251;51.762;8.660;2023-03-09T07:25:31;26.63;;;10.30;;
12373;SDS011;6251;51.762;8.660;2023-03-09T07:35:39;20.10;;;9.73;;
12373;SDS011;6251;51.762;8.660;2023-03-09T07:45:41;32.27;;;11.43;;
12373;SDS011;6251;51.762;8.660;2023-03-09T07:55:53;29.13;;;11.50;;
12373;SDS011;6251;51.762;8.660;2023-03-09T08:05:55;39.60;;;13.50;;
12373;SDS011;6251;51.762;8.660;2023-03-09T08:15:58;37.37;;;13.00;;
12373;SDS011;6251;51.762;8.660;2023-03-09T08:26:00;45.50;;;14.03;;
12373;SDS011;6251;51.762;8.660;2023-03-09T08:36:08;26.97;;;11.53;;
12373;SDS011;6251;51.762;8.660;2023-03-09T08:46:11;41.00;;;14.10;;
12373;SDS011;6251;51.762;8.660;2023-03-09T08:56:12;41.43;;;15.40;;
12373;SDS011;6251;51.762;8.660;2023-03-09T09:06:13;38.97;;;14.03;;
12373;SDS011;6251;51.762;8.660;2023-03-09T09:16:15;40.30;;;13.83;;
12373;SDS011;6251;51.762;8.660;2023-03-09T09:26:16;36.93;;;12.97;;
12373;SDS011;6251;51.762;8.660;2023-03-09T09:36:29;35.60;;;13.13;;
12373;SDS011;6251;51.762;8.660;2023-03-09T09:46:29;34.03;;;12.90;;
12373;SDS011;6251;51.762;8.660;2023-03-09T09:56:39;30.67;;;12.17;;
12373;SDS011;6251;51.762;8.660;2023-03-09T10:06:47;34.43;;;12.70;;
12373;SDS011;6251;51.762;8.660;2023-03-09T10:16:51;31.27;;;11.13;;
12373;SDS011;6251;51.762;8.660;2023-03-09T10:37:20;32.10;;;11.77;;
12373;SDS011;6251;51.762;8.660;2023-03-09T10:47:24;28.95;;;12.65;;
12373;SDS011;6251;51.762;8.660;2023-03-09T10:57:25;29.47;;;11.57;;
12373;SDS011;6251;51.762;8.660;2023-03-09T11:07:29;30.37;;;13.37;;
12373;SDS011;6251;51.762;8.660;2023-03-09T11:27:40;35.47;;;13.63;;
12373;SDS011;6251;51.762;8.660;2023-03-09T11:37:58;34.27;;;13.40;;
12373;SDS011;6251;51.762;8.660;2023-03-09T11:48:23;30.93;;;12.50;;
12373;SDS011;6251;51.762;8.660;2023-03-09T11:58:34;39.47;;;16.33;;
12373;SDS011;6251;51.762;8.660;2023-03-09T12:19:13;41.47;;;17.20;;
12373;SDS011;6251;51.762;8.660;2023-03-09T12:29:18;50.00;;;18.83;;
12373;SDS011;6251;51.762;8.660;2023-03-09T12:49:25;55.90;;;20.35;;
12373;SDS011;6251;51.762;8.660;2023-03-09T12:59:28;49.80;;;20.23;;
12373;SDS011;6251;51.762;8.660;2023-03-09T13:09:39;51.40;;;20.58;;
12373;SDS011;6251;51.762;8.660;2023-03-09T13:19:48;55.95;;;21.45;;
12373;SDS011;6251;51.762;8.660;2023-03-09T13:50:30;47.10;;;19.27;;
12373;SDS011;6251;51.762;8.660;2023-03-09T14:00:34;53.83;;;20.17;;
12373;SDS011;6251;51.762;8.660;2023-03-09T14:10:35;44.47;;;17.33;;
12373;SDS011;6251;51.762;8.660;2023-03-09T14:20:38;51.20;;;21.53;;
12373;SDS011;6251;51.762;8.660;2023-03-09T14:30:40;46.53;;;18.53;;
12373;SDS011;6251;51.762;8.660;2023-03-09T14:40:42;45.53;;;19.08;;
12373;SDS011;6251;51.762;8.660;2023-03-09T14:50:43;45.63;;;18.40;;
12373;SDS011;6251;51.762;8.660;2023-03-09T15:00:44;47.28;;;18.25;;
12373;SDS011;6251;51.762;8.660;2023-03-09T15:10:45;52.83;;;20.77;;
12373;SDS011;6251;51.762;8.660;2023-03-09T15:20:46;48.33;;;17.77;;
12373;SDS011;6251;51.762;8.660;2023-03-09T15:30:47;51.20;;;18.60;;
12373;SDS011;6251;51.762;8.660;2023-03-09T15:40:47;37.23;;;15.50;;
12373;SDS011;6251;51.762;8.660;2023-03-09T15:50:49;39.50;;;16.07;;
12373;SDS011;6251;51.762;8.660;2023-03-09T16:00:50;43.17;;;15.07;;
12373;SDS011;6251;51.762;8.660;2023-03-09T16:10:56;53.00;;;21.83;;
12373;SDS011;6251;51.762;8.660;2023-03-09T16:21:00;43.43;;;17.20;;
12373;SDS011;6251;51.762;8.660;2023-03-09T16:31:01;38.53;;;16.50;;
12373;SDS011;6251;51.762;8.660;2023-03-09T16:41:05;31.93;;;13.53;;
12373;SDS011;6251;51.762;8.660;2023-03-09T16:51:10;30.40;;;14.17;;
12373;SDS011;6251;51.762;8.660;2023-03-09T17:01:12;32.00;;;14.37;;
12373;SDS011;6251;51.762;8.660;2023-03-09T17:11:14;31.93;;;12.63;;
12373;SDS011;6251;51.762;8.660;2023-03-09T17:21:16;36.27;;;15.10;;
12373;SDS011;6251;51.762;8.660;2023-03-09T17:31:23;40.63;;;17.37;;
12373;SDS011;6251;51.762;8.660;2023-03-09T17:41:24;29.23;;;13.37;;
12373;SDS011;6251;51.762;8.660;2023-03-09T18:01:48;23.40;;;10.80;;
12373;SDS011;6251;51.762;8.660;2023-03-09T18:11:51;20.10;;;12.17;;
12373;SDS011;6251;51.762;8.660;2023-03-09T18:21:52;21.90;;;10.93;;
12373;SDS011;6251;51.762;8.660;2023-03-09T18:31:53;17.07;;;8.87;;
12373;SDS011;6251;51.762;8.660;2023-03-09T18:41:53;16.87;;;9.37;;
12373;SDS011;6251;51.762;8.660;2023-03-09T18:51:54;13.23;;;8.13;;
12373;SDS011;6251;51.762;8.660;2023-03-09T19:01:55;17.30;;;10.67;;
12373;SDS011;6251;51.762;8.660;2023-03-09T19:11:55;18.30;;;11.70;;
12373;SDS011;6251;51.762;8.660;2023-03-09T19:32:00;20.17;;;10.20;;
12373;SDS011;6251;51.762;8.660;2023-03-09T19:42:01;22.03;;;11.73;;
12373;SDS011;6251;51.762;8.660;2023-03-09T19:52:02;17.73;;;11.57;;
12373;SDS011;6251;51.762;8.660;2023-03-09T20:02:02;16.73;;;10.57;;
12373;SDS011;6251;51.762;8.660;2023-03-09T20:12:03;19.37;;;13.23;;
12373;SDS011;6251;51.762;8.660;2023-03-09T20:22:04;20.80;;;12.73;;
12373;SDS011;6251;51.762;8.660;2023-03-09T20:32:07;30.03;;;14.20;;
12373;SDS011;6251;51.762;8.660;2023-03-09T20:42:08;28.33;;;15.50;;
12373;SDS011;6251;51.762;8.660;2023-03-09T20:52:08;24.17;;;12.53;;
12373;SDS011;6251;51.762;8.660;2023-03-09T21:02:10;27.23;;;13.40;;
12373;SDS011;6251;51.762;8.660;2023-03-09T21:12:10;24.53;;;13.30;;
12373;SDS011;6251;51.762;8.660;2023-03-09T21:22:11;33.17;;;15.40;;
12373;SDS011;6251;51.762;8.660;2023-03-09T21:32:13;48.90;;;21.97;;
12373;SDS011;6251;51.762;8.660;2023-03-09T21:42:13;21.10;;;11.07;;
12373;SDS011;6251;51.762;8.660;2023-03-09T21:52:14;21.37;;;11.00;;
